sensor_id;sensor_type;location;lat;lon;timestamp;temperature;humidity
54158;DHT22;40065;49.894;10.358;2023-05-10T00:01:41;15.90;99.90
54158;DHT22;40065;49.894;10.358;2023-05-10T00:06:43;15.80;99.90
54158;DHT22;40065;49.894;10.358;2023-05-10T00:11:44;16.00;99.90
54158;DHT22;40065;49.894;10.358;2023-05-10T00:16:46;15.90;99.90
54158;DHT22;40065;49.894;10.358;2023-05-10T00:21:48;15.90;99.90
54158;DHT22;40065;49.894;10.358;2023-05-10T00:26:50;15.90;99.90
54158;DHT22;40065;49.894;10.358;2023-05-10T00:31:52;16.00;99.90
54158;DHT22;40065;49.894;10.358;2023-05-10T00:36:54;15.80;99.90
54158;DHT22;40065;49.894;10.358;2023-05-10T00:41:56;15.90;99.90
54158;DHT22;40065;49.894;10.358;2023-05-10T00:46:58;15.90;99.90
54158;DHT22;40065;49.894;10.358;2023-05-10T00:52:00;16.00;99.90
54158;DHT22;40065;49.894;10.358;2023-05-10T00:57:03;15.90;99.90
54158;DHT22;40065;49.894;10.358;2023-05-10T01:02:06;16.00;99.90
54158;DHT22;40065;49.894;10.358;2023-05-10T01:07:08;15.90;99.90
54158;DHT22;40065;49.894;10.358;2023-05-10T01:12:11;15.90;99.90
54158;DHT22;40065;49.894;10.358;2023-05-10T01:17:13;15.80;99.90
54158;DHT22;40065;49.894;10.358;2023-05-10T01:22:25;15.80;99.90
54158;DHT22;40065;49.894;10.358;2023-05-10T01:43:44;15.80;99.90
54158;DHT22;40065;49.894;10.358;2023-05-10T01:48:54;15.70;99.90
54158;DHT22;40065;49.894;10.358;2023-05-10T01:54:01;15.60;99.90
54158;DHT22;40065;49.894;10.358;2023-05-10T01:59:08;15.60;99.90
54158;DHT22;40065;49.894;10.358;2023-05-10T02:04:11;15.40;99.90
54158;DHT22;40065;49.894;10.358;2023-05-10T02:09:17;15.30;99.90
54158;DHT22;40065;49.894;10.358;2023-05-10T02:14:22;15.40;99.90
54158;DHT22;40065;49.894;10.358;2023-05-10T02:19:27;15.40;99.90
54158;DHT22;40065;49.894;10.358;2023-05-10T02:24:32;15.40;99.90
54158;DHT22;40065;49.894;10.358;2023-05-10T02:29:35;15.40;99.90
54158;DHT22;40065;49.894;10.358;2023-05-10T02:34:38;15.30;99.90
54158;DHT22;40065;49.894;10.358;2023-05-10T02:39:41;15.20;99.90
54158;DHT22;40065;49.894;10.358;2023-05-10T02:44:48;15.20;99.90
54158;DHT22;40065;49.894;10.358;2023-05-10T02:49:50;15.30;99.90
54158;DHT22;40065;49.894;10.358;2023-05-10T02:54:55;15.40;99.90
54158;DHT22;40065;49.894;10.358;2023-05-10T02:59:57;15.40;99.90
54158;DHT22;40065;49.894;10.358;2023-05-10T03:04:59;15.50;99.90
54158;DHT22;40065;49.894;10.358;2023-05-10T03:10:02;15.40;99.90
54158;DHT22;40065;49.894;10.358;2023-05-10T03:15:17;15.10;99.90
54158;DHT22;40065;49.894;10.358;2023-05-10T03:20:29;15.10;99.90
54158;DHT22;40065;49.894;10.358;2023-05-10T03:25:33;14.90;99.90
54158;DHT22;40065;49.894;10.358;2023-05-10T03:30:39;14.90;99.90
54158;DHT22;40065;49.894;10.358;2023-05-10T03:35:42;14.90;99.90
54158;DHT22;40065;49.894;10.358;2023-05-10T03:40:43;14.80;99.90
54158;DHT22;40065;49.894;10.358;2023-05-10T03:45:45;14.60;99.90
54158;DHT22;40065;49.894;10.358;2023-05-10T03:50:47;14.70;99.90
54158;DHT22;40065;49.894;10.358;2023-05-10T03:55:51;14.70;99.90
54158;DHT22;40065;49.894;10.358;2023-05-10T04:00:52;14.60;99.90
54158;DHT22;40065;49.894;10.358;2023-05-10T04:06:01;14.60;99.90
54158;DHT22;40065;49.894;10.358;2023-05-10T04:11:10;14.70;99.90
54158;DHT22;40065;49.894;10.358;2023-05-10T04:16:12;14.60;99.90
54158;DHT22;40065;49.894;10.358;2023-05-10T04:21:14;14.60;99.90
54158;DHT22;40065;49.894;10.358;2023-05-10T04:26:16;14.30;99.90
54158;DHT22;40065;49.894;10.358;2023-05-10T04:31:18;14.50;99.90
54158;DHT22;40065;49.894;10.358;2023-05-10T04:36:20;14.50;99.90
54158;DHT22;40065;49.894;10.358;2023-05-10T04:41:21;14.60;99.90
54158;DHT22;40065;49.894;10.358;2023-05-10T04:46:23;14.50;99.90
54158;DHT22;40065;49.894;10.358;2023-05-10T04:51:25;14.60;99.90
54158;DHT22;40065;49.894;10.358;2023-05-10T04:56:27;14.60;99.90
54158;DHT22;40065;49.894;10.358;2023-05-10T05:01:28;14.60;99.90
54158;DHT22;40065;49.894;10.358;2023-05-10T05:06:30;14.50;99.90
54158;DHT22;40065;49.894;10.358;2023-05-10T05:11:32;14.50;99.90
54158;DHT22;40065;49.894;10.358;2023-05-10T05:16:34;14.50;99.90
54158;DHT22;40065;49.894;10.358;2023-05-10T05:21:36;14.50;99.90
54158;DHT22;40065;49.894;10.358;2023-05-10T05:26:38;14.70;99.90
54158;DHT22;40065;49.894;10.358;2023-05-10T05:31:40;14.90;99.90
54158;DHT22;40065;49.894;10.358;2023-05-10T05:36:42;14.90;99.90
54158;DHT22;40065;49.894;10.358;2023-05-10T05:41:43;15.10;99.90
54158;DHT22;40065;49.894;10.358;2023-05-10T05:46:45;15.40;99.90
54158;DHT22;40065;49.894;10.358;2023-05-10T05:51:47;15.80;99.90
54158;DHT22;40065;49.894;10.358;2023-05-10T05:56:53;15.90;99.90
54158;DHT22;40065;49.894;10.358;2023-05-10T06:01:55;16.30;99.90
54158;DHT22;40065;49.894;10.358;2023-05-10T06:06:56;16.50;99.90
54158;DHT22;40065;49.894;10.358;2023-05-10T06:11:58;16.80;99.90
54158;DHT22;40065;49.894;10.358;2023-05-10T06:17:00;16.90;99.90
54158;DHT22;40065;49.894;10.358;2023-05-10T06:22:02;17.10;99.90
54158;DHT22;40065;49.894;10.358;2023-05-10T06:27:04;17.10;99.90
54158;DHT22;40065;49.894;10.358;2023-05-10T06:32:07;16.90;99.90
54158;DHT22;40065;49.894;10.358;2023-05-10T06:37:09;16.70;99.90
54158;DHT22;40065;49.894;10.358;2023-05-10T06:42:11;16.60;99.90
54158;DHT22;40065;49.894;10.358;2023-05-10T06:47:12;16.70;99.90
54158;DHT22;40065;49.894;10.358;2023-05-10T06:52:14;16.70;99.90
54158;DHT22;40065;49.894;10.358;2023-05-10T06:57:16;16.50;99.90
54158;DHT22;40065;49.894;10.358;2023-05-10T07:02:32;16.50;99.90
54158;DHT22;40065;49.894;10.358;2023-05-10T07:07:34;16.50;99.90
54158;DHT22;40065;49.894;10.358;2023-05-10T07:12:35;16.70;99.90
54158;DHT22;40065;49.894;10.358;2023-05-10T07:17:37;16.90;99.90
54158;DHT22;40065;49.894;10.358;2023-05-10T07:22:39;17.20;99.90
54158;DHT22;40065;49.894;10.358;2023-05-10T07:27:41;17.10;99.90
54158;DHT22;40065;49.894;10.358;2023-05-10T07:32:43;17.20;99.90
54158;DHT22;40065;49.894;10.358;2023-05-10T07:37:44;17.10;99.90
54158;DHT22;40065;49.894;10.358;2023-05-10T07:42:46;17.00;99.90
54158;DHT22;40065;49.894;10.358;2023-05-10T07:47:48;16.70;99.90
54158;DHT22;40065;49.894;10.358;2023-05-10T07:52:50;16.70;99.90
54158;DHT22;40065;49.894;10.358;2023-05-10T07:57:52;16.50;99.90
54158;DHT22;40065;49.894;10.358;2023-05-10T08:02:54;16.50;99.90
54158;DHT22;40065;49.894;10.358;2023-05-10T08:07:55;16.50;99.90
54158;DHT22;40065;49.894;10.358;2023-05-10T08:12:57;16.90;99.90
54158;DHT22;40065;49.894;10.358;2023-05-10T08:18:00;17.60;99.90
54158;DHT22;40065;49.894;10.358;2023-05-10T08:23:01;17.80;99.90
54158;DHT22;40065;49.894;10.358;2023-05-10T08:28:03;17.60;99.90
54158;DHT22;40065;49.894;10.358;2023-05-10T08:33:05;17.30;99.90
54158;DHT22;40065;49.894;10.358;2023-05-10T08:38:07;16.90;99.90
54158;DHT22;40065;49.894;10.358;2023-05-10T08:43:11;16.90;99.90
54158;DHT22;40065;49.894;10.358;2023-05-10T08:48:13;17.10;99.90
54158;DHT22;40065;49.894;10.358;2023-05-10T08:53:16;17.80;99.90
54158;DHT22;40065;49.894;10.358;2023-05-10T08:58:19;18.30;99.90
54158;DHT22;40065;49.894;10.358;2023-05-10T09:03:21;18.70;99.90
54158;DHT22;40065;49.894;10.358;2023-05-10T09:08:24;18.60;99.90
54158;DHT22;40065;49.894;10.358;2023-05-10T09:13:29;18.50;99.90
54158;DHT22;40065;49.894;10.358;2023-05-10T09:18:31;18.40;99.90
54158;DHT22;40065;49.894;10.358;2023-05-10T09:23:33;19.40;99.90
54158;DHT22;40065;49.894;10.358;2023-05-10T09:28:56;20.50;99.90
54158;DHT22;40065;49.894;10.358;2023-05-10T09:33:58;20.60;99.90
54158;DHT22;40065;49.894;10.358;2023-05-10T09:39:00;20.20;99.90
54158;DHT22;40065;49.894;10.358;2023-05-10T09:44:02;19.90;99.90
54158;DHT22;40065;49.894;10.358;2023-05-10T09:49:05;19.70;99.90
54158;DHT22;40065;49.894;10.358;2023-05-10T09:54:15;19.70;99.90
54158;DHT22;40065;49.894;10.358;2023-05-10T09:59:18;19.80;99.90
54158;DHT22;40065;49.894;10.358;2023-05-10T10:04:20;19.50;99.90
54158;DHT22;40065;49.894;10.358;2023-05-10T10:09:23;19.30;99.90
54158;DHT22;40065;49.894;10.358;2023-05-10T10:14:25;19.40;99.90
54158;DHT22;40065;49.894;10.358;2023-05-10T10:19:28;20.10;99.90
54158;DHT22;40065;49.894;10.358;2023-05-10T10:24:29;20.10;99.90
54158;DHT22;40065;49.894;10.358;2023-05-10T10:29:59;20.20;99.90
54158;DHT22;40065;49.894;10.358;2023-05-10T10:35:02;21.00;99.70
54158;DHT22;40065;49.894;10.358;2023-05-10T10:40:23;19.90;99.30
54158;DHT22;40065;49.894;10.358;2023-05-10T10:45:25;19.90;99.50
54158;DHT22;40065;49.894;10.358;2023-05-10T10:50:28;19.50;99.90
54158;DHT22;40065;49.894;10.358;2023-05-10T10:55:30;20.10;99.70
54158;DHT22;40065;49.894;10.358;2023-05-10T11:00:36;20.20;99.20
54158;DHT22;40065;49.894;10.358;2023-05-10T11:05:49;20.40;99.00
54158;DHT22;40065;49.894;10.358;2023-05-10T11:10:53;22.00;97.00
54158;DHT22;40065;49.894;10.358;2023-05-10T11:21:18;20.70;98.10
54158;DHT22;40065;49.894;10.358;2023-05-10T11:26:20;20.20;99.20
54158;DHT22;40065;49.894;10.358;2023-05-10T11:31:24;20.20;99.10
54158;DHT22;40065;49.894;10.358;2023-05-10T11:36:29;20.80;98.80
54158;DHT22;40065;49.894;10.358;2023-05-10T11:41:31;21.30;97.90
54158;DHT22;40065;49.894;10.358;2023-05-10T11:46:33;22.40;95.30
54158;DHT22;40065;49.894;10.358;2023-05-10T11:51:35;22.30;95.40
54158;DHT22;40065;49.894;10.358;2023-05-10T11:56:40;21.30;95.60
54158;DHT22;40065;49.894;10.358;2023-05-10T12:01:42;20.90;97.20
54158;DHT22;40065;49.894;10.358;2023-05-10T12:06:44;21.30;97.30
54158;DHT22;40065;49.894;10.358;2023-05-10T12:11:48;21.70;95.80
54158;DHT22;40065;49.894;10.358;2023-05-10T12:16:49;21.90;95.60
54158;DHT22;40065;49.894;10.358;2023-05-10T12:21:52;21.90;95.10
54158;DHT22;40065;49.894;10.358;2023-05-10T12:26:54;22.80;94.80
54158;DHT22;40065;49.894;10.358;2023-05-10T12:31:57;23.00;94.10
54158;DHT22;40065;49.894;10.358;2023-05-10T12:37:00;23.80;93.00
54158;DHT22;40065;49.894;10.358;2023-05-10T12:42:02;23.30;93.60
54158;DHT22;40065;49.894;10.358;2023-05-10T12:47:04;22.90;92.50
54158;DHT22;40065;49.894;10.358;2023-05-10T12:52:06;23.10;92.90
54158;DHT22;40065;49.894;10.358;2023-05-10T12:57:08;23.40;92.90
54158;DHT22;40065;49.894;10.358;2023-05-10T13:02:11;22.40;94.00
54158;DHT22;40065;49.894;10.358;2023-05-10T13:07:12;22.00;94.30
54158;DHT22;40065;49.894;10.358;2023-05-10T13:12:15;21.50;94.60
54158;DHT22;40065;49.894;10.358;2023-05-10T13:17:16;21.50;95.20
54158;DHT22;40065;49.894;10.358;2023-05-10T13:22:18;21.70;95.80
54158;DHT22;40065;49.894;10.358;2023-05-10T13:27:40;21.40;93.90
54158;DHT22;40065;49.894;10.358;2023-05-10T13:32:42;21.90;94.00
54158;DHT22;40065;49.894;10.358;2023-05-10T13:37:44;21.80;94.70
54158;DHT22;40065;49.894;10.358;2023-05-10T13:42:45;21.50;94.30
54158;DHT22;40065;49.894;10.358;2023-05-10T13:47:47;21.20;94.20
54158;DHT22;40065;49.894;10.358;2023-05-10T13:52:49;20.60;95.10
54158;DHT22;40065;49.894;10.358;2023-05-10T13:57:51;20.80;95.90
54158;DHT22;40065;49.894;10.358;2023-05-10T14:02:53;19.60;96.10
54158;DHT22;40065;49.894;10.358;2023-05-10T14:07:55;19.10;97.60
54158;DHT22;40065;49.894;10.358;2023-05-10T14:12:57;18.50;98.30
54158;DHT22;40065;49.894;10.358;2023-05-10T14:17:59;18.10;99.70
54158;DHT22;40065;49.894;10.358;2023-05-10T14:23:01;17.70;99.90
54158;DHT22;40065;49.894;10.358;2023-05-10T14:28:02;17.40;99.90
54158;DHT22;40065;49.894;10.358;2023-05-10T14:33:05;17.40;99.90
54158;DHT22;40065;49.894;10.358;2023-05-10T14:38:06;17.20;99.90
54158;DHT22;40065;49.894;10.358;2023-05-10T14:43:08;17.30;99.90
54158;DHT22;40065;49.894;10.358;2023-05-10T14:48:11;17.40;99.90
54158;DHT22;40065;49.894;10.358;2023-05-10T14:53:16;17.60;99.90
54158;DHT22;40065;49.894;10.358;2023-05-10T14:58:19;17.60;99.90
54158;DHT22;40065;49.894;10.358;2023-05-10T15:03:21;17.50;99.90
54158;DHT22;40065;49.894;10.358;2023-05-10T15:08:24;17.50;99.90
54158;DHT22;40065;49.894;10.358;2023-05-10T15:13:26;17.60;99.90
54158;DHT22;40065;49.894;10.358;2023-05-10T15:18:27;17.60;99.90
54158;DHT22;40065;49.894;10.358;2023-05-10T15:23:29;17.60;99.90
54158;DHT22;40065;49.894;10.358;2023-05-10T15:28:31;17.60;99.90
54158;DHT22;40065;49.894;10.358;2023-05-10T15:33:36;17.60;99.90
54158;DHT22;40065;49.894;10.358;2023-05-10T15:38:38;17.30;99.90
54158;DHT22;40065;49.894;10.358;2023-05-10T15:43:40;17.20;99.90
54158;DHT22;40065;49.894;10.358;2023-05-10T15:48:42;17.40;99.90
54158;DHT22;40065;49.894;10.358;2023-05-10T15:53:44;17.40;99.90
54158;DHT22;40065;49.894;10.358;2023-05-10T15:59:06;17.30;99.90
54158;DHT22;40065;49.894;10.358;2023-05-10T16:04:09;17.30;99.90
54158;DHT22;40065;49.894;10.358;2023-05-10T16:09:11;17.40;99.90
54158;DHT22;40065;49.894;10.358;2023-05-10T16:14:13;17.30;99.90
54158;DHT22;40065;49.894;10.358;2023-05-10T16:19:15;17.50;99.90
54158;DHT22;40065;49.894;10.358;2023-05-10T16:24:17;17.40;99.90
54158;DHT22;40065;49.894;10.358;2023-05-10T16:29:19;17.40;99.90
54158;DHT22;40065;49.894;10.358;2023-05-10T16:34:20;17.40;99.90
54158;DHT22;40065;49.894;10.358;2023-05-10T16:39:24;17.40;99.90
54158;DHT22;40065;49.894;10.358;2023-05-10T16:44:26;17.30;99.90
54158;DHT22;40065;49.894;10.358;2023-05-10T16:49:28;17.30;99.90
54158;DHT22;40065;49.894;10.358;2023-05-10T16:54:29;17.40;99.90
54158;DHT22;40065;49.894;10.358;2023-05-10T16:59:31;17.40;99.90
54158;DHT22;40065;49.894;10.358;2023-05-10T17:04:34;17.30;99.90
54158;DHT22;40065;49.894;10.358;2023-05-10T17:09:35;17.30;99.90
54158;DHT22;40065;49.894;10.358;2023-05-10T17:14:37;17.40;99.90
54158;DHT22;40065;49.894;10.358;2023-05-10T17:19:39;17.20;99.90
54158;DHT22;40065;49.894;10.358;2023-05-10T17:24:41;17.20;99.90
54158;DHT22;40065;49.894;10.358;2023-05-10T17:29:42;17.10;99.90
54158;DHT22;40065;49.894;10.358;2023-05-10T17:34:44;17.10;99.90
54158;DHT22;40065;49.894;10.358;2023-05-10T17:39:46;17.10;99.90
54158;DHT22;40065;49.894;10.358;2023-05-10T17:44:48;17.10;99.90
54158;DHT22;40065;49.894;10.358;2023-05-10T17:49:49;17.00;99.90
54158;DHT22;40065;49.894;10.358;2023-05-10T17:54:51;16.80;99.90
54158;DHT22;40065;49.894;10.358;2023-05-10T17:59:53;16.80;99.90
54158;DHT22;40065;49.894;10.358;2023-05-10T18:04:55;16.90;99.90
54158;DHT22;40065;49.894;10.358;2023-05-10T18:10:00;16.80;99.90
54158;DHT22;40065;49.894;10.358;2023-05-10T18:15:02;16.70;99.90
54158;DHT22;40065;49.894;10.358;2023-05-10T18:20:05;16.60;99.90
54158;DHT22;40065;49.894;10.358;2023-05-10T18:25:08;16.40;99.90
54158;DHT22;40065;49.894;10.358;2023-05-10T18:30:10;16.30;99.90
54158;DHT22;40065;49.894;10.358;2023-05-10T18:35:13;16.30;99.90
54158;DHT22;40065;49.894;10.358;2023-05-10T18:40:16;16.00;99.90
54158;DHT22;40065;49.894;10.358;2023-05-10T18:45:18;15.80;99.90
54158;DHT22;40065;49.894;10.358;2023-05-10T18:50:20;15.90;99.90
54158;DHT22;40065;49.894;10.358;2023-05-10T18:55:25;15.80;99.90
54158;DHT22;40065;49.894;10.358;2023-05-10T19:00:27;15.60;99.90
54158;DHT22;40065;49.894;10.358;2023-05-10T19:05:29;15.60;99.90
54158;DHT22;40065;49.894;10.358;2023-05-10T19:10:32;15.50;99.90
54158;DHT22;40065;49.894;10.358;2023-05-10T19:15:33;15.50;99.90
54158;DHT22;40065;49.894;10.358;2023-05-10T19:20:35;15.50;99.90
54158;DHT22;40065;49.894;10.358;2023-05-10T19:25:39;15.40;99.90
54158;DHT22;40065;49.894;10.358;2023-05-10T19:30:42;15.20;99.90
54158;DHT22;40065;49.894;10.358;2023-05-10T19:35:44;15.20;99.90
54158;DHT22;40065;49.894;10.358;2023-05-10T19:40:46;15.20;99.90
54158;DHT22;40065;49.894;10.358;2023-05-10T19:45:49;14.80;99.90
54158;DHT22;40065;49.894;10.358;2023-05-10T19:50:51;15.20;99.90
54158;DHT22;40065;49.894;10.358;2023-05-10T19:55:54;15.50;99.90
54158;DHT22;40065;49.894;10.358;2023-05-10T20:00:56;15.30;99.90
54158;DHT22;40065;49.894;10.358;2023-05-10T20:05:58;15.20;99.90
54158;DHT22;40065;49.894;10.358;2023-05-10T20:10:59;15.00;99.90
54158;DHT22;40065;49.894;10.358;2023-05-10T20:16:04;15.00;99.90
54158;DHT22;40065;49.894;10.358;2023-05-10T20:21:06;15.00;99.90
54158;DHT22;40065;49.894;10.358;2023-05-10T20:26:08;15.10;99.90
54158;DHT22;40065;49.894;10.358;2023-05-10T20:31:10;14.70;99.90
54158;DHT22;40065;49.894;10.358;2023-05-10T20:36:12;14.80;99.90
54158;DHT22;40065;49.894;10.358;2023-05-10T20:41:14;14.90;99.90
54158;DHT22;40065;49.894;10.358;2023-05-10T20:46:16;15.00;99.90
54158;DHT22;40065;49.894;10.358;2023-05-10T20:51:17;15.00;99.90
54158;DHT22;40065;49.894;10.358;2023-05-10T20:56:19;15.00;99.90
54158;DHT22;40065;49.894;10.358;2023-05-10T21:01:21;15.40;99.90
54158;DHT22;40065;49.894;10.358;2023-05-10T21:06:23;15.40;99.90
54158;DHT22;40065;49.894;10.358;2023-05-10T21:11:25;15.30;99.90
54158;DHT22;40065;49.894;10.358;2023-05-10T21:16:27;15.30;99.90
54158;DHT22;40065;49.894;10.358;2023-05-10T21:21:29;15.20;99.90
54158;DHT22;40065;49.894;10.358;2023-05-10T21:26:30;15.00;99.90
54158;DHT22;40065;49.894;10.358;2023-05-10T21:31:33;14.80;99.90
54158;DHT22;40065;49.894;10.358;2023-05-10T21:36:35;14.50;99.90
54158;DHT22;40065;49.894;10.358;2023-05-10T21:41:36;14.50;99.90
54158;DHT22;40065;49.894;10.358;2023-05-10T21:46:38;14.40;99.90
54158;DHT22;40065;49.894;10.358;2023-05-10T21:51:40;14.50;99.90
54158;DHT22;40065;49.894;10.358;2023-05-10T21:56:41;14.40;99.90
54158;DHT22;40065;49.894;10.358;2023-05-10T22:01:43;14.50;99.90
54158;DHT22;40065;49.894;10.358;2023-05-10T22:06:45;14.40;99.90
54158;DHT22;40065;49.894;10.358;2023-05-10T22:11:47;14.40;99.90
54158;DHT22;40065;49.894;10.358;2023-05-10T22:16:49;14.10;99.90
54158;DHT22;40065;49.894;10.358;2023-05-10T22:21:51;14.20;99.90
54158;DHT22;40065;49.894;10.358;2023-05-10T22:26:53;14.20;99.90
54158;DHT22;40065;49.894;10.358;2023-05-10T22:31:57;14.10;99.90
54158;DHT22;40065;49.894;10.358;2023-05-10T22:36:58;13.90;99.90
54158;DHT22;40065;49.894;10.358;2023-05-10T22:42:00;13.90;99.90
54158;DHT22;40065;49.894;10.358;2023-05-10T22:47:02;13.80;99.90
54158;DHT22;40065;49.894;10.358;2023-05-10T22:52:04;13.80;99.90
54158;DHT22;40065;49.894;10.358;2023-05-10T22:57:06;14.00;99.90
54158;DHT22;40065;49.894;10.358;2023-05-10T23:02:08;14.00;99.90
54158;DHT22;40065;49.894;10.358;2023-05-10T23:07:10;14.10;99.90
54158;DHT22;40065;49.894;10.358;2023-05-10T23:12:12;14.30;99.90
54158;DHT22;40065;49.894;10.358;2023-05-10T23:17:14;14.10;99.90
54158;DHT22;40065;49.894;10.358;2023-05-10T23:22:16;14.20;99.90
54158;DHT22;40065;49.894;10.358;2023-05-10T23:27:17;14.10;99.90
54158;DHT22;40065;49.894;10.358;2023-05-10T23:32:19;14.00;99.90
54158;DHT22;40065;49.894;10.358;2023-05-10T23:37:21;13.90;99.90
54158;DHT22;40065;49.894;10.358;2023-05-10T23:42:23;13.70;99.90
54158;DHT22;40065;49.894;10.358;2023-05-10T23:47:25;13.70;99.90
54158;DHT22;40065;49.894;10.358;2023-05-10T23:52:27;13.90;99.90
54158;DHT22;40065;49.894;10.358;2023-05-10T23:57:29;13.90;99.90
